createdAt,value
2019-05-12T00:03:27.680Z,11.38
2019-05-12T00:08:33.934Z,12.55
2019-05-12T00:13:40.512Z,12.90
2019-05-12T00:18:48.357Z,7.28
2019-05-12T00:24:13.841Z,12.00
2019-05-12T00:29:20.372Z,7.15
2019-05-12T00:34:28.863Z,8.80
2019-05-12T00:39:35.421Z,7.97
2019-05-12T00:44:42.047Z,10.30
2019-05-12T00:49:50.289Z,9.78
2019-05-12T00:54:58.651Z,8.00
2019-05-12T01:00:08.728Z,8.70
2019-05-12T01:05:17.696Z,6.58
2019-05-12T01:10:24.478Z,8.40
2019-05-12T01:15:31.101Z,7.97
2019-05-12T01:20:38.881Z,10.25
2019-05-12T01:25:47.817Z,6.55
2019-05-12T01:30:58.174Z,8.48
2019-05-12T01:36:04.575Z,10.30
2019-05-12T01:41:11.211Z,7.83
2019-05-12T01:46:18.168Z,9.28
2019-05-12T01:51:25.140Z,9.85
2019-05-12T01:56:31.599Z,8.58
2019-05-12T02:01:38.851Z,10.95
2019-05-12T02:06:45.783Z,11.97
2019-05-12T02:11:52.396Z,17.45
2019-05-12T02:16:58.988Z,7.80
2019-05-12T02:22:08.282Z,8.68
2019-05-12T02:27:14.150Z,10.28
2019-05-12T02:32:25.267Z,12.05
2019-05-12T02:37:30.218Z,8.43
2019-05-12T02:42:37.263Z,11.65
2019-05-12T02:47:45.597Z,6.40
2019-05-12T02:52:54.585Z,10.58
2019-05-12T02:58:04.924Z,11.93
2019-05-12T03:03:14.663Z,9.78
2019-05-12T03:08:25.581Z,9.83
2019-05-12T03:13:34.578Z,15.40
2019-05-12T03:18:40.699Z,9.58
2019-05-12T03:23:47.339Z,7.90
2019-05-12T03:28:55.608Z,12.82
2019-05-12T03:34:08.182Z,11.90
2019-05-12T03:39:10.845Z,12.05
2019-05-12T03:44:18.460Z,7.78
2019-05-12T03:49:24.856Z,8.68
2019-05-12T03:54:34.728Z,6.40
2019-05-12T03:59:39.754Z,8.25
2019-05-12T04:04:46.265Z,6.58
2019-05-12T04:09:54.513Z,8.50
2019-05-12T04:15:04.817Z,10.90
2019-05-12T04:20:09.424Z,6.78
2019-05-12T04:25:16.234Z,11.57
2019-05-12T04:30:25.078Z,7.45
2019-05-12T04:35:34.534Z,7.78
2019-05-12T04:40:39.541Z,9.35
2019-05-12T04:45:46.007Z,8.65
2019-05-12T04:50:54.851Z,13.10
2019-05-12T04:56:10.801Z,6.97
2019-05-12T05:01:10.035Z,7.05
2019-05-12T05:06:16.570Z,6.55
2019-05-12T05:11:25.034Z,9.83
2019-05-12T05:16:34.359Z,8.70
2019-05-12T05:21:39.640Z,11.55
2019-05-12T05:26:46.263Z,6.00
2019-05-12T05:31:53.411Z,9.93
2019-05-12T05:37:01.642Z,9.48
2019-05-12T05:42:08.333Z,8.78
2019-05-12T05:47:14.797Z,8.35
2019-05-12T05:52:26.562Z,9.45
2019-05-12T05:57:29.932Z,12.05
2019-05-12T06:02:40.493Z,9.30
2019-05-12T06:07:46.028Z,8.23
2019-05-12T06:12:54.254Z,10.85
2019-05-12T06:18:03.332Z,11.45
2019-05-12T06:23:09.212Z,8.63
2019-05-12T06:28:15.761Z,9.40
2019-05-12T06:33:31.335Z,10.43
2019-05-12T06:38:35.558Z,7.22
2019-05-12T06:43:42.375Z,7.22
2019-05-12T06:48:47.810Z,8.63
2019-05-12T06:53:54.409Z,8.30
2019-05-12T06:59:07.142Z,6.83
2019-05-12T07:04:10.420Z,9.55
2019-05-12T07:09:25.100Z,8.20
2019-05-12T07:14:27.190Z,10.75
2019-05-12T07:19:33.888Z,9.88
2019-05-12T07:24:50.229Z,7.28
2019-05-12T07:29:50.127Z,9.83
2019-05-12T07:34:56.803Z,11.83
2019-05-12T07:40:05.344Z,8.60
2019-05-12T07:45:20.113Z,12.37
2019-05-12T07:50:24.858Z,9.93
2019-05-12T07:55:29.575Z,13.00
2019-05-12T08:00:36.076Z,11.25
2019-05-12T08:05:43.947Z,11.73
2019-05-12T08:10:53.521Z,11.97
2019-05-12T08:15:58.819Z,14.00
2019-05-12T08:21:05.451Z,10.08
2019-05-12T08:26:18.391Z,9.93
2019-05-12T08:31:23.487Z,11.53
2019-05-12T08:36:35.490Z,9.10
2019-05-12T08:41:44.272Z,5.78
2019-05-12T08:46:53.454Z,11.63
2019-05-12T08:52:00.435Z,9.33
2019-05-12T08:57:07.166Z,8.80
2019-05-12T09:02:15.502Z,10.13
2019-05-12T09:07:24.264Z,11.57
2019-05-12T09:12:30.913Z,7.97
2019-05-12T09:17:49.069Z,7.17
2019-05-12T09:22:46.227Z,9.15
2019-05-12T09:27:54.238Z,12.85
2019-05-12T09:33:04.088Z,7.10
2019-05-12T09:38:20.389Z,8.68
2019-05-12T09:43:19.310Z,7.62
2019-05-12T09:48:25.891Z,8.93
2019-05-12T09:53:34.101Z,11.85
2019-05-12T09:58:40.560Z,10.00
2019-05-12T10:03:47.295Z,11.15
2019-05-12T10:08:54.947Z,8.35
2019-05-12T10:14:06.604Z,6.35
2019-05-12T10:19:10.181Z,11.68
2019-05-12T10:24:16.876Z,8.85
2019-05-12T10:29:29.324Z,8.23
2019-05-12T10:34:38.128Z,9.25
2019-05-12T10:39:41.198Z,9.50
2019-05-12T10:44:47.735Z,9.43
2019-05-12T10:49:54.578Z,6.87
2019-05-12T10:55:01.159Z,5.83
2019-05-12T11:00:10.156Z,5.70
2019-05-12T11:05:21.121Z,9.35
2019-05-12T11:10:25.187Z,4.33
2019-05-12T11:15:33.949Z,10.43
2019-05-12T11:20:40.414Z,13.43
2019-05-12T11:25:50.491Z,6.58
2019-05-12T11:30:57.151Z,4.08
2019-05-12T11:36:04.364Z,6.67
2019-05-12T11:41:16.160Z,4.60
2019-05-12T11:46:19.590Z,3.90
2019-05-12T11:51:30.250Z,4.15
2019-05-12T11:56:34.910Z,4.10
2019-05-12T12:01:47.492Z,3.12
2019-05-12T12:06:49.939Z,7.58
2019-05-12T12:12:05.552Z,5.45
2019-05-12T12:17:06.982Z,5.22
2019-05-12T12:22:14.650Z,5.53
2019-05-12T12:27:23.457Z,3.30
2019-05-12T12:32:30.328Z,5.30
2019-05-12T12:37:36.988Z,4.83
2019-05-12T12:42:47.103Z,2.87
2019-05-12T12:47:53.937Z,6.67
2019-05-12T12:53:00.391Z,3.27
2019-05-12T12:58:07.060Z,5.40
2019-05-12T13:03:14.347Z,4.75
2019-05-12T13:08:24.022Z,3.77
2019-05-12T13:13:29.819Z,4.55
2019-05-12T13:18:36.561Z,6.05
2019-05-12T13:23:45.280Z,4.22
2019-05-12T13:28:53.189Z,5.67
2019-05-12T13:33:59.938Z,5.75
2019-05-12T13:39:11.362Z,4.08
2019-05-12T13:44:16.871Z,3.80
2019-05-12T13:49:24.460Z,3.33
2019-05-12T13:54:31.206Z,4.10
2019-05-12T13:59:37.838Z,5.35
2019-05-12T14:04:44.511Z,4.67
2019-05-12T14:09:51.080Z,2.50
2019-05-12T14:14:57.657Z,4.03
2019-05-12T14:20:09.439Z,2.12
2019-05-12T14:25:15.251Z,2.10
2019-05-12T14:30:21.581Z,6.05
2019-05-12T14:35:32.431Z,5.40
2019-05-12T14:40:36.556Z,4.28
2019-05-12T14:45:44.017Z,7.53
2019-05-12T14:50:50.855Z,4.03
2019-05-12T14:55:57.656Z,3.30
2019-05-12T15:01:04.343Z,4.17
2019-05-12T15:06:10.907Z,3.70
2019-05-12T15:11:17.489Z,3.15
2019-05-12T15:16:24.078Z,2.58
2019-05-12T15:21:31.428Z,4.15
2019-05-12T15:26:38.281Z,8.25
2019-05-12T15:31:53.447Z,1.72
2019-05-12T15:36:56.070Z,2.75
2019-05-12T15:42:03.496Z,4.85
2019-05-12T15:47:10.129Z,3.02
2019-05-12T15:52:16.610Z,3.90
2019-05-12T15:57:24.464Z,4.17
2019-05-12T16:02:31.323Z,1.55
2019-05-12T16:07:39.555Z,15.38
2019-05-12T16:12:46.518Z,4.78
2019-05-12T16:17:54.066Z,10.00
2019-05-12T16:23:04.079Z,1.45
2019-05-12T16:28:17.203Z,2.75
2019-05-12T16:33:20.795Z,2.98
2019-05-12T16:38:27.713Z,2.35
2019-05-12T16:43:35.355Z,1.98
2019-05-12T16:48:48.233Z,2.95
2019-05-12T16:59:17.027Z,4.08
2019-05-12T17:04:20.926Z,5.45
2019-05-12T17:09:29.546Z,1.62
2019-05-12T17:14:47.979Z,1.27
2019-05-12T17:19:46.212Z,2.42
2019-05-12T17:24:53.768Z,3.80
2019-05-12T17:30:00.574Z,4.40
2019-05-12T17:35:10.201Z,3.87
2019-05-12T17:40:20.929Z,2.72
2019-05-12T17:45:27.697Z,3.35
2019-05-12T17:50:34.709Z,3.98
2019-05-12T17:55:42.588Z,2.70
2019-05-12T18:00:51.834Z,2.80
2019-05-12T18:05:57.894Z,4.12
2019-05-12T18:11:04.582Z,4.87
2019-05-12T18:16:16.718Z,3.60
2019-05-12T18:21:21.897Z,2.27
2019-05-12T18:26:27.836Z,2.40
2019-05-12T18:31:34.673Z,6.58
2019-05-12T18:36:41.151Z,1.90
2019-05-12T18:41:49.026Z,2.35
2019-05-12T18:46:55.734Z,6.62
2019-05-12T18:52:03.952Z,6.40
2019-05-12T18:57:10.838Z,5.03
2019-05-12T19:02:23.176Z,3.25
2019-05-12T19:07:39.449Z,4.08
2019-05-12T19:12:35.650Z,5.58
2019-05-12T19:17:43.593Z,7.60
2019-05-12T19:22:57.403Z,5.00
2019-05-12T19:28:05.941Z,2.55
2019-05-12T19:33:10.778Z,3.52
2019-05-12T19:38:16.141Z,2.42
2019-05-12T19:43:23.758Z,4.28
2019-05-12T19:48:35.203Z,5.17
2019-05-12T19:53:38.927Z,2.87
2019-05-12T19:58:46.027Z,2.87
2019-05-12T20:03:55.684Z,2.77
2019-05-12T20:09:09.927Z,4.35
2019-05-12T20:14:10.005Z,6.17
2019-05-12T20:19:19.875Z,2.27
2019-05-12T20:24:26.040Z,2.47
2019-05-12T20:29:33.889Z,6.55
2019-05-12T20:34:49.090Z,4.62
2019-05-12T20:39:51.250Z,2.85
2019-05-12T20:45:02.634Z,5.50
2019-05-12T20:50:08.813Z,4.22
2019-05-12T20:55:15.447Z,7.28
2019-05-12T21:00:24.313Z,5.17
2019-05-12T21:05:30.675Z,2.60
2019-05-12T21:10:37.139Z,3.25
2019-05-12T21:15:45.816Z,2.80
2019-05-12T21:20:54.693Z,5.97
2019-05-12T21:26:00.832Z,7.62
2019-05-12T21:31:07.500Z,2.35
2019-05-12T21:36:15.443Z,4.40
2019-05-12T21:41:24.437Z,3.42
2019-05-12T21:46:30.601Z,4.83
2019-05-12T21:51:37.161Z,5.83
2019-05-12T21:56:49.027Z,6.03
2019-05-12T22:01:53.411Z,6.12
2019-05-12T22:07:00.064Z,5.17
2019-05-12T22:12:06.876Z,4.15
2019-05-12T22:17:13.693Z,2.20
2019-05-12T22:22:25.712Z,3.55
2019-05-12T22:27:30.937Z,2.30
2019-05-12T22:32:36.891Z,4.80
2019-05-12T22:37:45.054Z,4.20
2019-05-12T22:42:56.995Z,3.22
2019-05-12T22:48:03.655Z,6.50
2019-05-12T22:53:09.476Z,3.22
2019-05-12T22:58:20.704Z,4.58
2019-05-12T23:03:24.519Z,3.42
2019-05-12T23:08:33.254Z,5.53
2019-05-12T23:13:42.743Z,7.87
2019-05-12T23:18:47.635Z,4.70
2019-05-12T23:23:57.429Z,7.28
2019-05-12T23:29:04.248Z,3.42
2019-05-12T23:34:12.357Z,3.33
2019-05-12T23:39:19.013Z,7.28
2019-05-12T23:44:25.571Z,3.58
2019-05-12T23:49:33.632Z,7.78
2019-05-12T23:54:40.388Z,5.80
2019-05-12T23:59:46.910Z,4.50
